This is the latest recevied weather packets stored in our database for station/object HS1WDC-1. If no packets are shown the sender has not sent any weather packets the latest 10 day(s).
| Time | Temp. | Humidity | Pressure | Rain* | Wind** | Luminosity | Snow |
|---|---|---|---|---|---|---|---|
| 1777773814 | 37.22° C | 53% | 1009 hPa | - | - | 0 W/m² | - |
| 1777772890 | 36.67° C | 55% | 1009 hPa | - | - | 0 W/m² | - |
| 1777771966 | 37.22° C | 54% | 1009 hPa | - | - | 0 W/m² | - |
| 1777771041 | 36.11° C | 57% | 1009 hPa | - | - | 0 W/m² | - |
| 1777770117 | 36.11° C | 57% | 1009 hPa | - | - | 0 W/m² | - |
| 1777769193 | 35.56° C | 58% | 1009 hPa | - | - | 0 W/m² | - |
| 1777768268 | 35.56° C | 59% | 1009 hPa | - | - | 0 W/m² | - |
| 1777767343 | 35° C | 60% | 1009 hPa | - | - | 0 W/m² | - |
| 1777766419 | 35° C | 60% | 1008 hPa | - | - | 0 W/m² | - |
| 1777765495 | 34.44° C | 61% | 1008 hPa | - | - | 0 W/m² | - |
| 1777764570 | 33.89° C | 65% | 1008 hPa | - | - | 0 W/m² | - |
| 1777763646 | 33.33° C | 65% | 1008 hPa | - | - | 0 W/m² | - |
| 1777762722 | 33.89° C | 63% | 1008 hPa | - | - | 0 W/m² | - |
| 1777761798 | 33.89° C | 63% | 1007 hPa | - | - | 0 W/m² | - |
| 1777760873 | 33.89° C | 62% | 1007 hPa | - | - | 0 W/m² | - |
| 1777759949 | 33.33° C | 64% | 1007 hPa | - | - | 0 W/m² | - |
| 1777759024 | 33.89° C | 62% | 1007 hPa | - | - | 0 W/m² | - |
| 1777758100 | 33.89° C | 61% | 1007 hPa | - | - | 0 W/m² | - |
| 1777757176 | 33.89° C | 59% | 1007 hPa | - | - | 0 W/m² | - |
| 1777756251 | 34.44° C | 58% | 1006 hPa | - | - | 0 W/m² | - |
| 1777755327 | 34.44° C | 57% | 1006 hPa | - | - | 0 W/m² | - |
| 1777754403 | 33.89° C | 59% | 1006 hPa | - | - | 0 W/m² | - |
| 1777753478 | 33.89° C | 59% | 1006 hPa | - | - | 0 W/m² | - |
| 1777751358 | 35° C | 55% | 1006 hPa | - | - | 0 W/m² | - |
| 1777750434 | 35° C | 56% | 1006 hPa | - | - | 0 W/m² | - |
* Rain since midnight (hover to see other rain measurements)
** Current wind speed in m/s (hover to see current wind gust speed)